Time,TemperatureF,DewpointF,PressureIn,WindDirection,WindDirectionDegrees,WindSpeedMPH,WindSpeedGustMPH,Humidity,HourlyPrecipIn,Conditions,Clouds,dailyrainin,SolarRadiationWatts/m^2,SoftwareType,DateUTC
2013-02-09 00:00:00,30.0,26.3,29.66,SSW,198,7.0,8.0,86,0.00,,,0.00,0,Wunderground v.1.15,2013-02-09 07:00:00,
2013-02-09 00:06:00,29.9,26.2,29.66,SSW,212,7.0,8.0,86,0.00,,,0.00,0,Wunderground v.1.15,2013-02-09 07:06:00,
2013-02-09 00:12:00,29.8,26.4,29.66,SSW,211,6.0,7.0,87,0.00,,,0.00,0,Wunderground v.1.15,2013-02-09 07:12:00,
2013-02-09 00:18:00,29.8,26.4,29.66,South,190,3.0,7.0,87,0.00,,,0.00,0,Wunderground v.1.15,2013-02-09 07:18:00,
2013-02-09 00:24:00,29.8,26.7,29.65,South,190,1.0,2.0,88,0.00,,,0.00,0,Wunderground v.1.15,2013-02-09 07:24:00,
2013-02-09 00:30:00,29.7,26.6,29.65,South,190,1.0,1.0,88,0.00,,,0.00,0,Wunderground v.1.15,2013-02-09 07:30:00,
2013-02-09 00:36:00,29.7,26.6,29.65,South,190,0.0,1.0,88,0.00,,,0.00,0,Wunderground v.1.15,2013-02-09 07:36:00,
2013-02-09 00:42:00,29.6,26.5,29.65,South,190,0.0,0.0,88,0.00,,,0.00,0,Wunderground v.1.15,2013-02-09 07:42:00,
2013-02-09 00:48:00,29.6,26.5,29.65,South,190,1.0,2.0,88,0.00,,,0.00,0,Wunderground v.1.15,2013-02-09 07:48:00,
2013-02-09 00:54:00,29.4,26.3,29.65,WSW,247,3.0,5.0,88,0.00,,,0.00,0,Wunderground v.1.15,2013-02-09 07:54:00,
2013-02-09 01:00:00,29.2,26.1,29.65,West,259,4.0,4.0,88,0.00,,,0.00,0,Wunderground v.1.15,2013-02-09 08:00:00,
2013-02-09 01:06:00,29.1,26.0,29.65,WSW,257,3.0,4.0,88,0.00,,,0.00,0,Wunderground v.1.15,2013-02-09 08:06:00,
2013-02-09 01:12:00,29.1,26.0,29.65,WSW,257,1.0,1.0,88,0.00,,,0.00,0,Wunderground v.1.15,2013-02-09 08:12:00,
2013-02-09 01:18:00,29.0,25.9,29.65,WSW,257,0.0,1.0,88,0.00,,,0.00,0,Wunderground v.1.15,2013-02-09 08:18:00,
2013-02-09 01:24:00,29.0,25.9,29.65,WSW,257,0.0,0.0,88,0.00,,,0.00,0,Wunderground v.1.15,2013-02-09 08:24:00,
2013-02-09 01:30:00,29.0,26.2,29.65,WSW,257,0.0,1.0,89,0.00,,,0.00,0,Wunderground v.1.15,2013-02-09 08:30:00,
2013-02-09 01:36:00,28.8,26.0,29.65,NW,325,1.0,3.0,89,0.00,,,0.00,0,Wunderground v.1.15,2013-02-09 08:36:00,
2013-02-09 01:42:00,28.7,25.9,29.65,WNW,286,2.0,2.0,89,0.00,,,0.00,0,Wunderground v.1.15,2013-02-09 08:42:00,
2013-02-09 01:48:00,28.5,25.7,29.65,WSW,254,3.0,7.0,89,0.00,,,0.00,0,Wunderground v.1.15,2013-02-09 08:48:00,
2013-02-09 01:54:00,28.2,25.4,29.65,West,259,5.0,5.0,89,0.00,,,0.00,0,Wunderground v.1.15,2013-02-09 08:54:00,
2013-02-09 02:00:00,27.9,25.1,29.65,WNW,288,5.0,6.0,89,0.00,,,0.00,0,Wunderground v.1.15,2013-02-09 09:00:00,
2013-02-09 02:06:00,27.7,24.9,29.66,West,275,6.0,7.0,89,0.00,,,0.00,0,Wunderground v.1.15,2013-02-09 09:06:00,
2013-02-09 02:12:00,27.4,24.6,29.67,WSW,244,5.0,6.0,89,0.00,,,0.00,0,Wunderground v.1.15,2013-02-09 09:12:00,
2013-02-09 02:18:00,27.2,24.4,29.67,WNW,289,5.0,6.0,89,0.00,,,0.00,0,Wunderground v.1.15,2013-02-09 09:18:00,
2013-02-09 02:24:00,27.0,24.2,29.67,SW,235,4.0,6.0,89,0.00,,,0.00,0,Wunderground v.1.15,2013-02-09 09:24:00,
2013-02-09 02:30:00,26.9,24.1,29.67,West,262,3.0,4.0,89,0.00,,,0.00,0,Wunderground v.1.15,2013-02-09 09:30:00,
2013-02-09 02:36:00,26.8,24.0,29.67,SW,223,3.0,4.0,89,0.00,,,0.00,0,Wunderground v.1.15,2013-02-09 09:36:00,
2013-02-09 02:42:00,26.7,23.9,29.66,SW,216,4.0,4.0,89,0.00,,,0.00,0,Wunderground v.1.15,2013-02-09 09:42:00,
2013-02-09 02:48:00,26.6,23.8,29.65,SW,216,2.0,4.0,89,0.00,,,0.00,0,Wunderground v.1.15,2013-02-09 09:48:00,
2013-02-09 02:54:00,26.6,23.8,29.65,SW,216,1.0,2.0,89,0.00,,,0.00,0,Wunderground v.1.15,2013-02-09 09:54:00,
2013-02-09 03:00:00,26.6,23.8,29.65,SW,216,1.0,1.0,89,0.00,,,0.00,0,Wunderground v.1.15,2013-02-09 10:00:00,
2013-02-09 03:06:00,26.5,23.7,29.65,SSE,165,1.0,2.0,89,0.00,,,0.00,0,Wunderground v.1.15,2013-02-09 10:06:00,
2013-02-09 03:12:00,26.3,23.5,29.65,South,190,1.0,5.0,89,0.00,,,0.00,0,Wunderground v.1.15,2013-02-09 10:12:00,
2013-02-09 03:18:00,26.2,23.4,29.65,SSW,192,1.0,5.0,89,0.00,,,0.00,0,Wunderground v.1.15,2013-02-09 10:18:00,
2013-02-09 03:24:00,26.0,23.2,29.66,SSW,200,2.0,4.0,89,0.00,,,0.00,0,Wunderground v.1.15,2013-02-09 10:24:00,
2013-02-09 03:30:00,25.8,23.0,29.66,SW,215,3.0,5.0,89,0.00,,,0.00,0,Wunderground v.1.15,2013-02-09 10:30:00,
2013-02-09 03:36:00,25.7,22.9,29.65,SW,227,4.0,5.0,89,0.00,,,0.00,0,Wunderground v.1.15,2013-02-09 10:36:00,
2013-02-09 03:42:00,25.7,22.9,29.66,SSW,210,4.0,5.0,89,0.00,,,0.00,0,Wunderground v.1.15,2013-02-09 10:42:00,
2013-02-09 03:48:00,25.7,22.9,29.66,SW,231,4.0,5.0,89,0.00,,,0.00,0,Wunderground v.1.15,2013-02-09 10:48:00,
2013-02-09 03:54:00,25.7,22.9,29.66,SW,226,4.0,7.0,89,0.00,,,0.00,0,Wunderground v.1.15,2013-02-09 10:54:00,
2013-02-09 04:00:00,25.7,22.9,29.66,SW,231,5.0,5.0,89,0.00,,,0.00,0,Wunderground v.1.15,2013-02-09 11:00:00,
2013-02-09 04:06:00,25.8,23.0,29.66,SW,221,6.0,9.0,89,0.00,,,0.00,0,Wunderground v.1.15,2013-02-09 11:06:00,
2013-02-09 04:12:00,25.9,23.1,29.66,WSW,244,6.0,6.0,89,0.00,,,0.00,0,Wunderground v.1.15,2013-02-09 11:12:00,
2013-02-09 04:18:00,25.8,23.0,29.66,SW,236,7.0,7.0,89,0.00,,,0.00,0,Wunderground v.1.15,2013-02-09 11:18:00,
2013-02-09 04:24:00,25.8,23.0,29.66,SW,214,7.0,7.0,89,0.00,,,0.00,0,Wunderground v.1.15,2013-02-09 11:24:00,
2013-02-09 04:30:00,25.7,22.9,29.66,SW,216,4.0,4.0,89,0.00,,,0.00,0,Wunderground v.1.15,2013-02-09 11:30:00,
2013-02-09 04:36:00,25.5,22.7,29.66,SW,236,5.0,12.0,89,0.00,,,0.00,0,Wunderground v.1.15,2013-02-09 11:36:00,
2013-02-09 04:42:00,25.6,22.8,29.67,West,273,7.0,11.0,89,0.00,,,0.00,0,Wunderground v.1.15,2013-02-09 11:42:00,
2013-02-09 04:48:00,25.7,22.9,29.67,West,261,7.0,11.0,89,0.00,,,0.00,0,Wunderground v.1.15,2013-02-09 11:48:00,
2013-02-09 04:54:00,25.8,23.0,29.66,SW,231,8.0,9.0,89,0.00,,,0.00,0,Wunderground v.1.15,2013-02-09 11:54:00,
2013-02-09 05:00:00,25.8,23.0,29.66,WSW,253,8.0,8.0,89,0.00,,,0.00,0,Wunderground v.1.15,2013-02-09 12:00:00,
2013-02-09 05:06:00,25.8,23.0,29.67,WSW,252,7.0,11.0,89,0.00,,,0.00,0,Wunderground v.1.15,2013-02-09 12:06:00,
2013-02-09 05:12:00,25.9,23.1,29.66,WSW,240,8.0,12.0,89,0.00,,,0.00,0,Wunderground v.1.15,2013-02-09 12:12:00,
2013-02-09 05:18:00,25.9,23.1,29.66,SW,234,8.0,12.0,89,0.00,,,0.00,0,Wunderground v.1.15,2013-02-09 12:18:00,
2013-02-09 05:24:00,25.8,23.0,29.66,SW,227,8.0,10.0,89,0.00,,,0.00,0,Wunderground v.1.15,2013-02-09 12:24:00,
2013-02-09 05:30:00,25.7,22.9,29.66,WSW,238,9.0,10.0,89,0.00,,,0.00,0,Wunderground v.1.15,2013-02-09 12:30:00,
2013-02-09 05:36:00,25.6,22.8,29.66,SW,227,9.0,10.0,89,0.00,,,0.00,0,Wunderground v.1.15,2013-02-09 12:36:00,
2013-02-09 05:42:00,25.6,22.8,29.66,WSW,243,8.0,9.0,89,0.00,,,0.00,0,Wunderground v.1.15,2013-02-09 12:42:00,
2013-02-09 05:48:00,25.6,22.8,29.66,WSW,250,8.0,9.0,89,0.00,,,0.00,0,Wunderground v.1.15,2013-02-09 12:48:00,
2013-02-09 05:54:00,25.5,22.4,29.67,West,269,8.0,14.0,88,0.00,,,0.00,0,Wunderground v.1.15,2013-02-09 12:54:00,
2013-02-09 06:00:00,25.3,22.2,29.67,SW,232,9.0,11.0,88,0.00,,,0.00,0,Wunderground v.1.15,2013-02-09 13:00:00,
2013-02-09 06:06:00,25.2,21.9,29.67,WSW,258,11.0,15.0,87,0.00,,,0.00,0,Wunderground v.1.15,2013-02-09 13:06:00,
2013-02-09 06:12:00,25.2,21.9,29.68,SW,235,8.0,9.0,87,0.00,,,0.00,0,Wunderground v.1.15,2013-02-09 13:12:00,
2013-02-09 06:18:00,25.3,22.0,29.68,South,188,8.0,11.0,87,0.00,,,0.00,0,Wunderground v.1.15,2013-02-09 13:18:00,
2013-02-09 06:24:00,25.3,22.2,29.68,WSW,238,8.0,13.0,88,0.00,,,0.00,0,Wunderground v.1.15,2013-02-09 13:24:00,
2013-02-09 06:30:00,25.4,22.3,29.68,WSW,251,9.0,9.0,88,0.00,,,0.00,0,Wunderground v.1.15,2013-02-09 13:30:00,
2013-02-09 06:36:00,25.5,22.4,29.69,WSW,246,8.0,9.0,88,0.00,,,0.00,0,Wunderground v.1.15,2013-02-09 13:36:00,
2013-02-09 06:42:00,25.5,22.4,29.69,SW,226,6.0,6.0,88,0.00,,,0.00,0,Wunderground v.1.15,2013-02-09 13:42:00,
2013-02-09 06:48:00,25.4,22.3,29.69,SSW,201,4.0,6.0,88,0.00,,,0.00,0,Wunderground v.1.15,2013-02-09 13:48:00,
2013-02-09 06:53:00,25.5,22.4,29.69,WSW,240,5.0,8.0,88,0.00,,,0.00,0,Wunderground v.1.15,2013-02-09 13:53:00,
2013-02-09 07:00:00,25.6,22.8,29.69,SW,229,5.0,17.0,89,0.00,,,0.00,0,Wunderground v.1.15,2013-02-09 14:00:00,
2013-02-09 07:06:00,25.7,22.9,29.70,SW,219,7.0,17.0,89,0.00,,,0.00,0,Wunderground v.1.15,2013-02-09 14:06:00,
2013-02-09 07:12:00,25.8,23.0,29.70,WSW,237,8.0,8.0,89,0.00,,,0.00,0,Wunderground v.1.15,2013-02-09 14:12:00,
2013-02-09 07:18:00,25.8,23.0,29.70,SW,233,7.0,9.0,89,0.00,,,0.00,0,Wunderground v.1.15,2013-02-09 14:18:00,
2013-02-09 07:24:00,25.8,23.0,29.70,SSW,201,7.0,9.0,89,0.00,,,0.00,0,Wunderground v.1.15,2013-02-09 14:24:00,
2013-02-09 07:30:00,25.8,23.0,29.70,SW,232,7.0,7.0,89,0.00,,,0.00,0,Wunderground v.1.15,2013-02-09 14:30:00,
2013-02-09 07:36:00,25.8,23.0,29.70,SW,225,6.0,8.0,89,0.00,,,0.00,0,Wunderground v.1.15,2013-02-09 14:36:00,
2013-02-09 07:42:00,25.8,23.0,29.71,SW,227,7.0,11.0,89,0.00,,,0.00,0,Wunderground v.1.15,2013-02-09 14:42:00,
2013-02-09 07:48:00,26.0,23.2,29.71,WSW,240,9.0,13.0,89,0.00,,,0.00,5,Wunderground v.1.15,2013-02-09 14:48:00,
2013-02-09 07:54:00,26.2,23.4,29.71,SSW,213,10.0,11.0,89,0.00,,,0.00,11,Wunderground v.1.15,2013-02-09 14:54:00,
2013-02-09 08:00:00,26.3,23.8,29.71,WSW,250,9.0,9.0,90,0.00,,,0.00,11,Wunderground v.1.15,2013-02-09 15:00:00,
2013-02-09 08:06:00,26.5,24.0,29.72,WSW,237,10.0,12.0,90,0.00,,,0.00,9,Wunderground v.1.15,2013-02-09 15:06:00,
2013-02-09 08:12:00,26.6,23.8,29.72,SW,225,11.0,12.0,89,0.00,,,0.00,16,Wunderground v.1.15,2013-02-09 15:12:00,
2013-02-09 08:18:00,26.8,24.0,29.73,SW,236,11.0,13.0,89,0.00,,,0.00,25,Wunderground v.1.15,2013-02-09 15:18:00,
2013-02-09 08:24:00,27.1,24.3,29.73,WSW,256,10.0,11.0,89,0.00,,,0.00,28,Wunderground v.1.15,2013-02-09 15:24:00,
2013-02-09 08:30:00,27.4,24.6,29.74,SW,234,10.0,12.0,89,0.00,,,0.00,23,Wunderground v.1.15,2013-02-09 15:30:00,
2013-02-09 08:36:00,27.4,24.3,29.74,WSW,237,11.0,12.0,88,0.00,,,0.00,30,Wunderground v.1.15,2013-02-09 15:36:00,
2013-02-09 08:42:00,27.6,24.5,29.75,West,269,10.0,15.0,88,0.00,,,0.00,28,Wunderground v.1.15,2013-02-09 15:42:00,
2013-02-09 08:48:00,27.7,24.6,29.75,WSW,238,10.0,15.0,88,0.00,,,0.00,26,Wunderground v.1.15,2013-02-09 15:48:00,
2013-02-09 08:54:00,27.9,24.8,29.75,SW,227,9.0,14.0,88,0.00,,,0.00,28,Wunderground v.1.15,2013-02-09 15:54:00,
2013-02-09 09:00:00,28.0,24.6,29.76,SW,227,9.0,17.0,87,0.00,,,0.00,33,Wunderground v.1.15,2013-02-09 16:00:00,
2013-02-09 09:06:00,28.0,24.6,29.76,WSW,247,9.0,17.0,87,0.00,,,0.00,30,Wunderground v.1.15,2013-02-09 16:06:00,
2013-02-09 09:12:00,28.0,24.6,29.76,SSW,202,11.0,13.0,87,0.00,,,0.00,49,Wunderground v.1.15,2013-02-09 16:12:00,
2013-02-09 09:18:00,28.3,24.9,29.77,SW,229,11.0,14.0,87,0.00,,,0.00,42,Wunderground v.1.15,2013-02-09 16:18:00,
2013-02-09 09:24:00,28.4,24.7,29.77,WSW,251,10.0,11.0,86,0.00,,,0.00,63,Wunderground v.1.15,2013-02-09 16:24:00,
2013-02-09 09:30:00,28.7,25.0,29.77,WNW,299,9.0,9.0,86,0.00,,,0.00,53,Wunderground v.1.15,2013-02-09 16:30:00,
2013-02-09 09:36:00,28.9,25.2,29.78,WNW,287,9.0,14.0,86,0.00,,,0.00,47,Wunderground v.1.15,2013-02-09 16:36:00,
2013-02-09 09:42:00,28.8,24.9,29.78,West,261,9.0,9.0,85,0.00,,,0.00,46,Wunderground v.1.15,2013-02-09 16:42:00,
2013-02-09 09:48:00,28.6,24.7,29.78,SW,218,9.0,9.0,85,0.00,,,0.00,44,Wunderground v.1.15,2013-02-09 16:48:00,
2013-02-09 09:54:00,28.2,24.6,29.79,WSW,243,10.0,10.0,86,0.00,,,0.00,37,Wunderground v.1.15,2013-02-09 16:54:00,
2013-02-09 10:00:00,28.2,24.6,29.79,WSW,257,9.0,9.0,86,0.00,,,0.00,44,Wunderground v.1.15,2013-02-09 17:00:00,
2013-02-09 10:06:00,28.1,24.5,29.80,WSW,238,9.0,10.0,86,0.00,,,0.00,26,Wunderground v.1.15,2013-02-09 17:06:00,
2013-02-09 10:12:00,28.0,24.6,29.80,WSW,256,8.0,10.0,87,0.00,,,0.00,54,Wunderground v.1.15,2013-02-09 17:12:00,
2013-02-09 10:18:00,28.3,24.9,29.80,West,280,7.0,10.0,87,0.00,,,0.00,54,Wunderground v.1.15,2013-02-09 17:18:00,
2013-02-09 10:24:00,28.5,24.8,29.81,WSW,247,7.0,8.0,86,0.00,,,0.00,33,Wunderground v.1.15,2013-02-09 17:24:00,
2013-02-09 10:30:00,28.6,24.7,29.81,WSW,258,7.0,7.0,85,0.00,,,0.00,49,Wunderground v.1.15,2013-02-09 17:30:00,
2013-02-09 10:36:00,28.8,25.1,29.81,West,266,7.0,10.0,86,0.00,,,0.00,58,Wunderground v.1.15,2013-02-09 17:36:00,
2013-02-09 10:42:00,29.5,25.5,29.81,South,189,6.0,9.0,85,0.00,,,0.00,62,Wunderground v.1.15,2013-02-09 17:42:00,
2013-02-09 10:48:00,29.6,25.4,29.82,SW,227,9.0,11.0,84,0.00,,,0.00,46,Wunderground v.1.15,2013-02-09 17:48:00,
2013-02-09 10:54:00,29.4,24.9,29.82,SW,223,10.0,10.0,83,0.00,,,0.00,54,Wunderground v.1.15,2013-02-09 17:54:00,
2013-02-09 11:00:00,29.8,25.6,29.82,SW,227,8.0,9.0,84,0.00,,,0.00,56,Wunderground v.1.15,2013-02-09 18:00:00,
2013-02-09 11:06:00,30.7,26.1,29.82,WSW,249,8.0,12.0,83,0.00,,,0.00,65,Wunderground v.1.15,2013-02-09 18:06:00,
2013-02-09 11:12:00,31.6,26.4,29.82,SW,223,7.0,10.0,81,0.00,,,0.00,76,Wunderground v.1.15,2013-02-09 18:12:00,
2013-02-09 11:18:00,32.5,27.0,29.83,WSW,242,9.0,10.0,80,0.00,,,0.00,95,Wunderground v.1.15,2013-02-09 18:18:00,
2013-02-09 11:24:00,32.4,26.0,29.83,WSW,250,10.0,14.0,77,0.00,,,0.00,84,Wunderground v.1.15,2013-02-09 18:24:00,
2013-02-09 11:30:00,32.2,26.1,29.83,WSW,243,10.0,10.0,78,0.00,,,0.00,79,Wunderground v.1.15,2013-02-09 18:30:00,
2013-02-09 11:36:00,32.5,26.7,29.83,West,276,9.0,12.0,79,0.00,,,0.00,60,Wunderground v.1.15,2013-02-09 18:36:00,
2013-02-09 11:42:00,31.9,25.2,29.83,NW,306,10.0,10.0,76,0.00,,,0.00,81,Wunderground v.1.15,2013-02-09 18:42:00,
2013-02-09 11:48:00,31.2,24.8,29.83,West,268,9.0,14.0,77,0.00,,,0.01,81,Wunderground v.1.15,2013-02-09 18:48:00,
2013-02-09 11:54:00,31.3,25.5,29.83,SSW,208,9.0,11.0,79,0.00,,,0.01,67,Wunderground v.1.15,2013-02-09 18:54:00,
2013-02-09 12:00:00,31.4,25.9,29.83,SW,215,9.0,13.0,80,0.00,,,0.01,95,Wunderground v.1.15,2013-02-09 19:00:00,
2013-02-09 12:06:00,31.2,25.4,29.84,SSW,207,9.0,13.0,79,0.00,,,0.01,77,Wunderground v.1.15,2013-02-09 19:06:00,
2013-02-09 12:12:00,31.0,24.9,29.84,West,275,9.0,10.0,78,0.00,,,0.02,84,Wunderground v.1.15,2013-02-09 19:12:00,
2013-02-09 12:18:00,30.8,25.1,29.84,NNW,333,9.0,11.0,79,0.00,,,0.02,62,Wunderground v.1.15,2013-02-09 19:18:00,
2013-02-09 12:24:00,30.6,24.9,29.84,WSW,240,8.0,13.0,79,0.00,,,0.02,114,Wunderground v.1.15,2013-02-09 19:24:00,
2013-02-09 12:29:00,30.8,25.4,29.84,WSW,250,10.0,16.0,80,0.00,,,0.03,105,Wunderground v.1.15,2013-02-09 19:29:00,
2013-02-09 12:36:00,31.1,26.0,29.84,WSW,247,11.0,16.0,81,0.00,,,0.03,130,Wunderground v.1.15,2013-02-09 19:36:00,
2013-02-09 12:42:00,31.5,26.0,29.84,WSW,256,9.0,11.0,80,0.00,,,0.03,120,Wunderground v.1.15,2013-02-09 19:42:00,
2013-02-09 12:48:00,31.6,26.1,29.84,SSW,206,10.0,11.0,80,0.00,,,0.03,111,Wunderground v.1.15,2013-02-09 19:48:00,
2013-02-09 12:54:00,32.1,26.6,29.84,West,264,9.0,13.0,80,0.00,,,0.03,158,Wunderground v.1.15,2013-02-09 19:54:00,
2013-02-09 13:00:00,33.3,27.2,29.84,SW,217,10.0,16.0,78,0.00,,,0.03,139,Wunderground v.1.15,2013-02-09 20:00:00,
2013-02-09 13:06:00,33.6,26.8,29.85,WSW,248,9.0,16.0,76,0.00,,,0.03,130,Wunderground v.1.15,2013-02-09 20:06:00,
2013-02-09 13:12:00,32.9,25.8,29.85,WSW,256,9.0,13.0,75,0.00,,,0.04,93,Wunderground v.1.15,2013-02-09 20:12:00,
2013-02-09 13:18:00,32.1,25.4,29.85,WSW,252,9.0,13.0,76,0.06,,,0.05,69,Wunderground v.1.15,2013-02-09 20:18:00,
2013-02-09 13:24:00,31.7,25.3,29.85,WSW,252,8.0,14.0,77,0.06,,,0.05,69,Wunderground v.1.15,2013-02-09 20:24:00,
2013-02-09 13:30:00,31.0,24.9,29.85,SW,231,10.0,10.0,78,0.05,,,0.05,63,Wunderground v.1.15,2013-02-09 20:30:00,
2013-02-09 13:36:00,30.6,24.9,29.85,SW,216,10.0,10.0,79,0.00,,,0.05,53,Wunderground v.1.15,2013-02-09 20:36:00,
2013-02-09 13:42:00,30.3,25.2,29.86,WSW,241,9.0,9.0,81,0.00,,,0.05,62,Wunderground v.1.15,2013-02-09 20:42:00,
2013-02-09 13:48:00,30.1,25.0,29.86,WSW,239,8.0,11.0,81,0.00,,,0.05,54,Wunderground v.1.15,2013-02-09 20:48:00,
2013-02-09 13:54:00,30.1,25.3,29.86,SW,220,8.0,14.0,82,0.00,,,0.05,109,Wunderground v.1.15,2013-02-09 20:54:00,
2013-02-09 14:00:00,30.3,25.8,29.86,SW,235,10.0,10.0,83,0.00,,,0.05,113,Wunderground v.1.15,2013-02-09 21:00:00,
2013-02-09 14:06:00,30.5,26.0,29.86,SW,234,10.0,10.0,83,0.00,,,0.05,100,Wunderground v.1.15,2013-02-09 21:06:00,
2013-02-09 14:12:00,30.6,26.1,29.86,WSW,250,9.0,11.0,83,0.00,,,0.05,128,Wunderground v.1.15,2013-02-09 21:12:00,
2013-02-09 14:18:00,31.0,26.4,29.86,WSW,253,9.0,11.0,83,0.00,,,0.05,141,Wunderground v.1.15,2013-02-09 21:18:00,
2013-02-09 14:24:00,31.3,26.4,29.86,West,261,9.0,10.0,82,0.00,,,0.06,104,Wunderground v.1.15,2013-02-09 21:24:00,
2013-02-09 14:30:00,31.6,26.7,29.87,SW,236,9.0,9.0,82,0.00,,,0.06,127,Wunderground v.1.15,2013-02-09 21:30:00,
2013-02-09 14:36:00,31.5,26.0,29.87,WSW,252,9.0,15.0,80,0.00,,,0.06,109,Wunderground v.1.15,2013-02-09 21:36:00,
2013-02-09 14:42:00,31.2,25.7,29.87,WSW,240,9.0,10.0,80,0.00,,,0.06,84,Wunderground v.1.15,2013-02-09 21:42:00,
2013-02-09 14:48:00,31.0,25.9,29.88,SW,225,8.0,12.0,81,0.00,,,0.06,95,Wunderground v.1.15,2013-02-09 21:48:00,
2013-02-09 14:54:00,30.8,25.7,29.88,West,264,9.0,9.0,81,0.00,,,0.07,97,Wunderground v.1.15,2013-02-09 21:54:00,
2013-02-09 15:00:00,30.7,25.9,29.88,SW,232,9.0,9.0,82,0.00,,,0.07,139,Wunderground v.1.15,2013-02-09 22:00:00,
2013-02-09 15:06:00,30.6,25.8,29.88,West,264,9.0,15.0,82,0.00,,,0.07,116,Wunderground v.1.15,2013-02-09 22:06:00,
2013-02-09 15:12:00,30.7,26.1,29.89,WSW,248,8.0,9.0,83,0.00,,,0.07,107,Wunderground v.1.15,2013-02-09 22:12:00,
2013-02-09 15:18:00,30.7,26.1,29.89,WSW,243,8.0,15.0,83,0.00,,,0.07,105,Wunderground v.1.15,2013-02-09 22:18:00,
2013-02-09 15:24:00,30.7,26.4,29.90,WNW,294,8.0,11.0,84,0.00,,,0.07,128,Wunderground v.1.15,2013-02-09 22:24:00,
2013-02-09 15:30:00,30.9,26.6,29.90,SW,233,7.0,7.0,84,0.00,,,0.07,86,Wunderground v.1.15,2013-02-09 22:30:00,
2013-02-09 15:36:00,30.9,26.6,29.90,WNW,283,7.0,10.0,84,0.00,,,0.07,97,Wunderground v.1.15,2013-02-09 22:36:00,
2013-02-09 15:42:00,30.8,26.5,29.90,WSW,243,7.0,9.0,84,0.00,,,0.07,88,Wunderground v.1.15,2013-02-09 22:42:00,
2013-02-09 15:48:00,30.5,26.2,29.90,West,265,8.0,14.0,84,0.00,,,0.07,84,Wunderground v.1.15,2013-02-09 22:48:00,
2013-02-09 15:54:00,30.4,26.4,29.91,WSW,246,7.0,8.0,85,0.00,,,0.07,53,Wunderground v.1.15,2013-02-09 22:54:00,
2013-02-09 16:00:00,30.4,26.4,29.91,SSW,200,5.0,15.0,85,0.00,,,0.07,54,Wunderground v.1.15,2013-02-09 23:00:00,
2013-02-09 16:06:00,30.3,26.3,29.92,West,262,5.0,15.0,85,0.00,,,0.07,79,Wunderground v.1.15,2013-02-09 23:06:00,
2013-02-09 16:12:00,30.3,26.3,29.92,West,263,5.0,6.0,85,0.00,,,0.07,58,Wunderground v.1.15,2013-02-09 23:12:00,
2013-02-09 16:18:00,30.2,26.5,29.92,West,269,6.0,8.0,86,0.00,,,0.07,65,Wunderground v.1.15,2013-02-09 23:18:00,
2013-02-09 16:24:00,30.2,26.5,29.92,WSW,252,7.0,7.0,86,0.00,,,0.07,195,Wunderground v.1.15,2013-02-09 23:24:00,
2013-02-09 16:30:00,31.1,27.7,29.92,West,268,6.0,6.0,87,0.00,,,0.07,257,Wunderground v.1.15,2013-02-09 23:30:00,
2013-02-09 16:36:00,31.5,27.2,29.93,WSW,238,6.0,9.0,84,0.00,,,0.07,69,Wunderground v.1.15,2013-02-09 23:36:00,
2013-02-09 16:42:00,31.0,26.1,29.93,WSW,238,9.0,9.0,82,0.00,,,0.07,109,Wunderground v.1.15,2013-02-09 23:42:00,
2013-02-09 16:48:00,30.6,25.8,29.93,WSW,237,9.0,11.0,82,0.00,,,0.07,74,Wunderground v.1.15,2013-02-09 23:48:00,
2013-02-09 16:54:00,30.4,25.9,29.94,WNW,284,6.0,10.0,83,0.00,,,0.08,30,Wunderground v.1.15,2013-02-09 23:54:00,
2013-02-09 17:00:00,30.1,25.6,29.94,NW,314,7.0,7.0,83,0.00,,,0.08,23,Wunderground v.1.15,2013-02-10 00:00:00,
2013-02-09 17:06:00,29.8,25.3,29.94,West,274,7.0,8.0,83,0.00,,,0.08,35,Wunderground v.1.15,2013-02-10 00:06:00,
2013-02-09 17:12:00,29.8,25.6,29.95,WSW,257,5.0,6.0,84,0.00,,,0.08,35,Wunderground v.1.15,2013-02-10 00:12:00,
2013-02-09 17:18:00,29.7,25.5,29.95,West,262,4.0,8.0,84,0.00,,,0.08,26,Wunderground v.1.15,2013-02-10 00:18:00,
2013-02-09 17:24:00,29.7,25.5,29.95,WSW,239,4.0,8.0,84,0.00,,,0.08,44,Wunderground v.1.15,2013-02-10 00:24:00,
2013-02-09 17:30:00,29.7,25.7,29.95,WNW,285,5.0,5.0,85,0.00,,,0.08,33,Wunderground v.1.15,2013-02-10 00:30:00,
2013-02-09 17:36:00,29.5,25.3,29.95,SW,224,6.0,8.0,84,0.00,,,0.08,16,Wunderground v.1.15,2013-02-10 00:36:00,
2013-02-09 17:42:00,29.2,25.0,29.95,WNW,296,6.0,6.0,84,0.00,,,0.08,18,Wunderground v.1.15,2013-02-10 00:42:00,
2013-02-09 17:48:00,28.9,24.7,29.95,West,271,4.0,6.0,84,0.00,,,0.08,18,Wunderground v.1.15,2013-02-10 00:48:00,
2013-02-09 17:54:00,28.8,24.6,29.96,West,281,4.0,5.0,84,0.00,,,0.08,12,Wunderground v.1.15,2013-02-10 00:54:00,
2013-02-09 18:00:00,28.6,24.4,29.96,WSW,253,5.0,12.0,84,0.00,,,0.08,5,Wunderground v.1.15,2013-02-10 01:00:00,
2013-02-09 18:06:00,28.6,24.4,29.97,West,277,5.0,12.0,84,0.00,,,0.08,0,Wunderground v.1.15,2013-02-10 01:06:00,
2013-02-09 18:12:00,28.6,24.4,29.97,West,277,3.0,5.0,84,0.00,,,0.08,0,Wunderground v.1.15,2013-02-10 01:12:00,
2013-02-09 18:18:00,28.6,24.4,29.98,West,264,3.0,5.0,84,0.00,,,0.08,0,Wunderground v.1.15,2013-02-10 01:18:00,
2013-02-09 18:24:00,28.6,24.4,29.98,South,186,3.0,3.0,84,0.00,,,0.08,0,Wunderground v.1.15,2013-02-10 01:24:00,
2013-02-09 18:30:00,28.6,24.4,29.98,NW,307,2.0,2.0,84,0.00,,,0.08,0,Wunderground v.1.15,2013-02-10 01:30:00,
2013-02-09 18:36:00,28.6,24.7,29.98,WNW,287,2.0,2.0,85,0.00,,,0.08,0,Wunderground v.1.15,2013-02-10 01:36:00,
2013-02-09 18:42:00,28.6,24.7,29.98,SW,218,2.0,3.0,85,0.00,,,0.08,0,Wunderground v.1.15,2013-02-10 01:42:00,
2013-02-09 18:48:00,28.7,24.8,29.98,WSW,248,3.0,3.0,85,0.00,,,0.08,0,Wunderground v.1.15,2013-02-10 01:48:00,
2013-02-09 18:54:00,28.7,24.8,29.99,SW,236,2.0,5.0,85,0.00,,,0.08,0,Wunderground v.1.15,2013-02-10 01:54:00,
2013-02-09 19:00:00,28.7,24.8,29.99,NW,325,3.0,7.0,85,0.00,,,0.08,0,Wunderground v.1.15,2013-02-10 02:00:00,
2013-02-09 19:06:00,28.7,24.8,29.99,WNW,296,2.0,7.0,85,0.00,,,0.08,0,Wunderground v.1.15,2013-02-10 02:06:00,
2013-02-09 19:12:00,28.7,24.8,30.00,WNW,296,1.0,3.0,85,0.00,,,0.08,0,Wunderground v.1.15,2013-02-10 02:12:00,
2013-02-09 19:18:00,28.7,24.8,30.00,WNW,296,1.0,3.0,85,0.00,,,0.08,0,Wunderground v.1.15,2013-02-10 02:18:00,
2013-02-09 19:24:00,28.6,24.7,30.00,WNW,296,1.0,2.0,85,0.00,,,0.08,0,Wunderground v.1.15,2013-02-10 02:24:00,
2013-02-09 19:30:00,28.6,24.9,30.00,WNW,296,1.0,2.0,86,0.00,,,0.08,0,Wunderground v.1.15,2013-02-10 02:30:00,
2013-02-09 19:36:00,28.5,24.8,30.00,WNW,296,1.0,2.0,86,0.00,,,0.08,0,Wunderground v.1.15,2013-02-10 02:36:00,
2013-02-09 19:42:00,28.4,24.7,30.00,WNW,296,1.0,2.0,86,0.00,,,0.08,0,Wunderground v.1.15,2013-02-10 02:42:00,
2013-02-09 19:48:00,28.3,24.6,30.00,WNW,296,2.0,2.0,86,0.00,,,0.08,0,Wunderground v.1.15,2013-02-10 02:48:00,
2013-02-09 19:54:00,28.2,24.6,30.00,WNW,288,2.0,3.0,86,0.00,,,0.08,0,Wunderground v.1.15,2013-02-10 02:54:00,
2013-02-09 20:00:00,28.1,24.5,30.00,West,267,2.0,5.0,86,0.00,,,0.08,0,Wunderground v.1.15,2013-02-10 03:00:00,
2013-02-09 20:06:00,28.0,24.4,30.01,SSW,199,2.0,5.0,86,0.00,,,0.08,0,Wunderground v.1.15,2013-02-10 03:06:00,
2013-02-09 20:12:00,28.0,24.1,30.01,SSW,199,2.0,4.0,85,0.00,,,0.08,0,Wunderground v.1.15,2013-02-10 03:12:00,
2013-02-09 20:18:00,27.9,24.0,30.01,SSW,199,2.0,4.0,85,0.00,,,0.08,0,Wunderground v.1.15,2013-02-10 03:18:00,
2013-02-09 20:24:00,27.9,24.0,30.01,SSW,199,2.0,5.0,85,0.00,,,0.08,0,Wunderground v.1.15,2013-02-10 03:24:00,
2013-02-09 20:30:00,27.9,24.0,30.01,SSW,199,2.0,2.0,85,0.00,,,0.08,0,Wunderground v.1.15,2013-02-10 03:30:00,
2013-02-09 20:36:00,27.8,23.9,30.01,SSW,213,3.0,4.0,85,0.00,,,0.08,0,Wunderground v.1.15,2013-02-10 03:36:00,
2013-02-09 20:42:00,27.8,23.9,30.01,SSW,213,2.0,4.0,85,0.00,,,0.08,0,Wunderground v.1.15,2013-02-10 03:42:00,
2013-02-09 20:48:00,27.7,23.8,30.01,SW,215,3.0,5.0,85,0.00,,,0.08,0,Wunderground v.1.15,2013-02-10 03:48:00,
2013-02-09 20:54:00,27.7,23.8,30.02,SW,215,3.0,3.0,85,0.00,,,0.08,0,Wunderground v.1.15,2013-02-10 03:54:00,
2013-02-09 21:00:00,27.7,23.8,30.02,SSW,205,3.0,5.0,85,0.00,,,0.08,0,Wunderground v.1.15,2013-02-10 04:00:00,
2013-02-09 21:06:00,27.6,23.4,30.02,SSW,205,3.0,5.0,84,0.00,,,0.08,0,Wunderground v.1.15,2013-02-10 04:06:00,
2013-02-09 21:12:00,27.5,23.3,30.02,SSW,205,2.0,3.0,84,0.00,,,0.08,0,Wunderground v.1.15,2013-02-10 04:12:00,
2013-02-09 21:18:00,27.3,23.1,30.02,SSW,205,2.0,3.0,84,0.00,,,0.08,0,Wunderground v.1.15,2013-02-10 04:18:00,
2013-02-09 21:24:00,27.2,23.0,30.03,SSW,205,2.0,3.0,84,0.00,,,0.08,0,Wunderground v.1.15,2013-02-10 04:24:00,
2013-02-09 21:30:00,26.8,22.6,30.03,SSW,205,3.0,4.0,84,0.00,,,0.08,0,Wunderground v.1.15,2013-02-10 04:30:00,
2013-02-09 21:36:00,26.6,22.4,30.03,SSW,205,4.0,4.0,84,0.00,,,0.08,0,Wunderground v.1.15,2013-02-10 04:36:00,
2013-02-09 21:42:00,26.3,22.1,30.03,WSW,248,4.0,4.0,84,0.00,,,0.08,0,Wunderground v.1.15,2013-02-10 04:42:00,
2013-02-09 21:48:00,26.1,21.9,30.03,WSW,247,4.0,5.0,84,0.00,,,0.08,0,Wunderground v.1.15,2013-02-10 04:48:00,
2013-02-09 21:54:00,26.0,22.1,30.04,West,263,4.0,4.0,85,0.00,,,0.08,0,Wunderground v.1.15,2013-02-10 04:54:00,
2013-02-09 22:00:00,25.9,22.0,30.04,West,260,4.0,5.0,85,0.00,,,0.08,0,Wunderground v.1.15,2013-02-10 05:00:00,
2013-02-09 22:06:00,25.8,21.9,30.04,West,259,4.0,5.0,85,0.00,,,0.08,0,Wunderground v.1.15,2013-02-10 05:06:00,
2013-02-09 22:12:00,25.6,21.7,30.04,West,259,4.0,4.0,85,0.00,,,0.08,0,Wunderground v.1.15,2013-02-10 05:12:00,
2013-02-09 22:14:00,25.6,21.7,30.04,West,259,4.0,4.0,85,0.00,,,0.08,0,Wunderground v.1.15,2013-02-10 05:14:00,
2013-02-09 22:20:00,25.4,21.5,30.03,WSW,257,4.0,4.0,85,0.00,,,0.08,0,Wunderground v.1.15,2013-02-10 05:20:00,
2013-02-09 22:24:00,25.3,21.4,30.03,WSW,257,5.0,5.0,85,0.00,,,0.08,0,Wunderground v.1.15,2013-02-10 05:24:00,
2013-02-09 22:29:00,25.3,21.4,30.03,WSW,257,4.0,4.0,85,0.00,,,0.08,0,Wunderground v.1.15,2013-02-10 05:29:00,
2013-02-09 22:36:00,25.3,21.4,30.04,WSW,257,4.0,4.0,85,0.00,,,0.08,0,Wunderground v.1.15,2013-02-10 05:36:00,
2013-02-09 22:42:00,25.3,21.4,30.04,WSW,257,4.0,4.0,85,0.00,,,0.08,0,Wunderground v.1.15,2013-02-10 05:42:00,
2013-02-09 22:48:00,25.3,21.4,30.04,WSW,257,3.0,4.0,85,0.00,,,0.08,0,Wunderground v.1.15,2013-02-10 05:48:00,
2013-02-09 22:54:00,25.3,21.4,30.04,WSW,250,3.0,3.0,85,0.00,,,0.08,0,Wunderground v.1.15,2013-02-10 05:54:00,
2013-02-09 23:00:00,25.3,21.4,30.04,WSW,250,3.0,5.0,85,0.00,,,0.08,0,Wunderground v.1.15,2013-02-10 06:00:00,
2013-02-09 23:05:00,25.4,21.5,30.04,WSW,250,3.0,5.0,85,0.00,,,0.08,0,Wunderground v.1.15,2013-02-10 06:05:00,
2013-02-09 23:12:00,25.3,21.4,30.04,WSW,250,3.0,4.0,85,0.00,,,0.08,0,Wunderground v.1.15,2013-02-10 06:12:00,
2013-02-09 23:18:00,25.3,21.4,30.04,WSW,250,4.0,4.0,85,0.00,,,0.08,0,Wunderground v.1.15,2013-02-10 06:18:00,
2013-02-09 23:24:00,25.5,21.6,30.04,WSW,250,2.0,3.0,85,0.00,,,0.08,0,Wunderground v.1.15,2013-02-10 06:24:00,
2013-02-09 23:30:00,25.5,21.6,30.05,WSW,250,1.0,1.0,85,0.00,,,0.08,0,Wunderground v.1.15,2013-02-10 06:30:00,
2013-02-09 23:36:00,25.5,21.6,30.05,WSW,250,1.0,3.0,85,0.00,,,0.08,0,Wunderground v.1.15,2013-02-10 06:36:00,
2013-02-09 23:42:00,25.5,21.6,30.05,NW,307,3.0,3.0,85,0.00,,,0.08,0,Wunderground v.1.15,2013-02-10 06:42:00,
2013-02-09 23:48:00,25.3,20.9,30.05,WNW,300,3.0,3.0,83,0.00,,,0.08,0,Wunderground v.1.15,2013-02-10 06:48:00,
2013-02-09 23:54:00,25.0,20.6,30.06,WNW,300,3.0,3.0,83,0.00,,,0.08,0,Wunderground v.1.15,2013-02-10 06:54:00,
2013-02-09 23:59:00,24.9,20.5,30.06,WSW,247,3.0,3.0,83,0.00,,,0.08,0,Wunderground v.1.15,2013-02-10 06:59:00,